sensor_id;sensor_type;location;lat;lon;timestamp;P1;durP1;ratioP1;P2;durP2;ratioP2
17091;SDS011;8661;45.700;4.880;2023-07-13T00:01:34;1.03;;;0.87;;
17091;SDS011;8661;45.700;4.880;2023-07-13T00:04:05;1.70;;;1.00;;
17091;SDS011;8661;45.700;4.880;2023-07-13T00:06:32;2.63;;;1.33;;
17091;SDS011;8661;45.700;4.880;2023-07-13T00:09:00;2.00;;;1.17;;
17091;SDS011;8661;45.700;4.880;2023-07-13T00:11:27;3.33;;;1.27;;
17091;SDS011;8661;45.700;4.880;2023-07-13T00:13:55;1.20;;;1.10;;
17091;SDS011;8661;45.700;4.880;2023-07-13T00:16:22;2.27;;;1.00;;
17091;SDS011;8661;45.700;4.880;2023-07-13T00:18:48;1.03;;;0.80;;
17091;SDS011;8661;45.700;4.880;2023-07-13T00:21:17;1.30;;;1.10;;
17091;SDS011;8661;45.700;4.880;2023-07-13T00:23:44;1.90;;;1.10;;
17091;SDS011;8661;45.700;4.880;2023-07-13T00:26:11;1.73;;;1.00;;
17091;SDS011;8661;45.700;4.880;2023-07-13T00:28:39;2.23;;;0.90;;
17091;SDS011;8661;45.700;4.880;2023-07-13T00:31:07;1.63;;;1.10;;
17091;SDS011;8661;45.700;4.880;2023-07-13T00:33:35;3.07;;;0.97;;
17091;SDS011;8661;45.700;4.880;2023-07-13T00:36:02;1.43;;;0.90;;
17091;SDS011;8661;45.700;4.880;2023-07-13T00:38:31;1.27;;;0.90;;
17091;SDS011;8661;45.700;4.880;2023-07-13T00:40:58;1.10;;;0.90;;
17091;SDS011;8661;45.700;4.880;2023-07-13T00:43:26;5.23;;;1.87;;
17091;SDS011;8661;45.700;4.880;2023-07-13T00:48:43;0.93;;;0.83;;
17091;SDS011;8661;45.700;4.880;2023-07-13T00:51:12;1.07;;;0.93;;
17091;SDS011;8661;45.700;4.880;2023-07-13T00:53:41;2.73;;;1.10;;
17091;SDS011;8661;45.700;4.880;2023-07-13T00:56:08;1.43;;;0.97;;
17091;SDS011;8661;45.700;4.880;2023-07-13T00:58:36;3.83;;;1.00;;
17091;SDS011;8661;45.700;4.880;2023-07-13T01:01:05;1.23;;;0.97;;
17091;SDS011;8661;45.700;4.880;2023-07-13T01:03:32;1.47;;;1.03;;
17091;SDS011;8661;45.700;4.880;2023-07-13T01:06:01;3.00;;;1.20;;
17091;SDS011;8661;45.700;4.880;2023-07-13T01:08:29;2.43;;;1.33;;
17091;SDS011;8661;45.700;4.880;2023-07-13T01:10:57;1.83;;;0.90;;
17091;SDS011;8661;45.700;4.880;2023-07-13T01:13:25;3.03;;;1.10;;
17091;SDS011;8661;45.700;4.880;2023-07-13T01:15:52;2.13;;;1.10;;
17091;SDS011;8661;45.700;4.880;2023-07-13T01:18:24;4.13;;;1.27;;
17091;SDS011;8661;45.700;4.880;2023-07-13T01:20:55;4.43;;;1.17;;
17091;SDS011;8661;45.700;4.880;2023-07-13T01:23:25;3.07;;;1.30;;
17091;SDS011;8661;45.700;4.880;2023-07-13T01:25:53;1.27;;;1.00;;
17091;SDS011;8661;45.700;4.880;2023-07-13T01:28:25;3.37;;;1.20;;
17091;SDS011;8661;45.700;4.880;2023-07-13T01:30:54;1.90;;;1.10;;
17091;SDS011;8661;45.700;4.880;2023-07-13T01:33:22;3.63;;;1.20;;
17091;SDS011;8661;45.700;4.880;2023-07-13T01:35:50;4.17;;;1.80;;
17091;SDS011;8661;45.700;4.880;2023-07-13T01:38:19;4.57;;;1.40;;
17091;SDS011;8661;45.700;4.880;2023-07-13T01:40:47;4.40;;;1.70;;
17091;SDS011;8661;45.700;4.880;2023-07-13T01:43:14;4.27;;;2.00;;
17091;SDS011;8661;45.700;4.880;2023-07-13T01:45:41;6.23;;;2.00;;
17091;SDS011;8661;45.700;4.880;2023-07-13T01:48:09;3.13;;;1.60;;
17091;SDS011;8661;45.700;4.880;2023-07-13T01:50:37;3.57;;;1.70;;
17091;SDS011;8661;45.700;4.880;2023-07-13T01:53:04;8.87;;;1.60;;
17091;SDS011;8661;45.700;4.880;2023-07-13T01:55:33;4.47;;;1.70;;
17091;SDS011;8661;45.700;4.880;2023-07-13T01:58:00;4.10;;;1.60;;
17091;SDS011;8661;45.700;4.880;2023-07-13T02:00:28;5.07;;;1.80;;
17091;SDS011;8661;45.700;4.880;2023-07-13T02:02:55;8.20;;;2.50;;
17091;SDS011;8661;45.700;4.880;2023-07-13T02:05:22;11.27;;;2.93;;
17091;SDS011;8661;45.700;4.880;2023-07-13T02:07:49;6.33;;;1.80;;
17091;SDS011;8661;45.700;4.880;2023-07-13T02:10:17;5.50;;;2.07;;
17091;SDS011;8661;45.700;4.880;2023-07-13T02:12:48;4.93;;;2.17;;
17091;SDS011;8661;45.700;4.880;2023-07-13T02:15:16;8.70;;;2.20;;
17091;SDS011;8661;45.700;4.880;2023-07-13T02:17:43;6.47;;;2.07;;
17091;SDS011;8661;45.700;4.880;2023-07-13T02:20:10;7.20;;;2.30;;
17091;SDS011;8661;45.700;4.880;2023-07-13T02:22:37;3.23;;;1.73;;
17091;SDS011;8661;45.700;4.880;2023-07-13T02:25:04;7.00;;;2.13;;
17091;SDS011;8661;45.700;4.880;2023-07-13T02:27:31;6.50;;;2.27;;
17091;SDS011;8661;45.700;4.880;2023-07-13T02:29:59;8.73;;;2.37;;
17091;SDS011;8661;45.700;4.880;2023-07-13T02:32:26;4.17;;;2.40;;
17091;SDS011;8661;45.700;4.880;2023-07-13T02:34:53;4.80;;;1.83;;
17091;SDS011;8661;45.700;4.880;2023-07-13T02:37:20;3.20;;;2.10;;
17091;SDS011;8661;45.700;4.880;2023-07-13T02:39:47;3.70;;;2.20;;
17091;SDS011;8661;45.700;4.880;2023-07-13T02:42:14;6.43;;;2.40;;
17091;SDS011;8661;45.700;4.880;2023-07-13T02:44:41;4.63;;;2.10;;
17091;SDS011;8661;45.700;4.880;2023-07-13T02:47:09;2.97;;;2.10;;
17091;SDS011;8661;45.700;4.880;2023-07-13T02:49:36;3.83;;;2.30;;
17091;SDS011;8661;45.700;4.880;2023-07-13T02:52:03;6.50;;;2.50;;
17091;SDS011;8661;45.700;4.880;2023-07-13T02:54:31;6.10;;;2.63;;
17091;SDS011;8661;45.700;4.880;2023-07-13T02:56:58;5.10;;;2.50;;
17091;SDS011;8661;45.700;4.880;2023-07-13T02:59:25;4.33;;;2.13;;
17091;SDS011;8661;45.700;4.880;2023-07-13T03:01:52;7.77;;;1.93;;
17091;SDS011;8661;45.700;4.880;2023-07-13T03:04:20;5.93;;;2.07;;
17091;SDS011;8661;45.700;4.880;2023-07-13T03:06:47;3.80;;;1.90;;
17091;SDS011;8661;45.700;4.880;2023-07-13T03:09:14;5.70;;;1.83;;
17091;SDS011;8661;45.700;4.880;2023-07-13T03:11:41;3.07;;;2.10;;
17091;SDS011;8661;45.700;4.880;2023-07-13T03:14:08;7.43;;;2.40;;
17091;SDS011;8661;45.700;4.880;2023-07-13T03:16:35;6.73;;;2.20;;
17091;SDS011;8661;45.700;4.880;2023-07-13T03:19:02;3.00;;;1.90;;
17091;SDS011;8661;45.700;4.880;2023-07-13T03:21:30;4.90;;;2.03;;
17091;SDS011;8661;45.700;4.880;2023-07-13T03:23:57;6.00;;;2.57;;
17091;SDS011;8661;45.700;4.880;2023-07-13T03:26:24;4.00;;;2.20;;
17091;SDS011;8661;45.700;4.880;2023-07-13T03:28:51;2.20;;;1.83;;
17091;SDS011;8661;45.700;4.880;2023-07-13T03:31:19;7.57;;;2.40;;
17091;SDS011;8661;45.700;4.880;2023-07-13T03:33:47;3.13;;;1.90;;
17091;SDS011;8661;45.700;4.880;2023-07-13T03:36:16;5.23;;;2.00;;
17091;SDS011;8661;45.700;4.880;2023-07-13T03:38:46;3.63;;;2.13;;
17091;SDS011;8661;45.700;4.880;2023-07-13T03:41:14;4.97;;;1.93;;
17091;SDS011;8661;45.700;4.880;2023-07-13T03:43:41;3.37;;;2.20;;
17091;SDS011;8661;45.700;4.880;2023-07-13T03:46:08;4.13;;;2.20;;
17091;SDS011;8661;45.700;4.880;2023-07-13T03:48:36;6.27;;;2.10;;
17091;SDS011;8661;45.700;4.880;2023-07-13T03:51:05;3.97;;;2.40;;
17091;SDS011;8661;45.700;4.880;2023-07-13T03:53:31;5.30;;;2.70;;
17091;SDS011;8661;45.700;4.880;2023-07-13T03:56:00;5.30;;;2.50;;
17091;SDS011;8661;45.700;4.880;2023-07-13T03:58:28;4.37;;;2.40;;
17091;SDS011;8661;45.700;4.880;2023-07-13T04:00:57;4.00;;;2.60;;
17091;SDS011;8661;45.700;4.880;2023-07-13T04:03:26;9.60;;;2.30;;
17091;SDS011;8661;45.700;4.880;2023-07-13T04:05:53;8.13;;;3.17;;
17091;SDS011;8661;45.700;4.880;2023-07-13T04:08:25;3.33;;;2.13;;
17091;SDS011;8661;45.700;4.880;2023-07-13T04:13:42;10.27;;;2.80;;
17091;SDS011;8661;45.700;4.880;2023-07-13T04:16:17;5.83;;;3.07;;
17091;SDS011;8661;45.700;4.880;2023-07-13T04:19:19;4.23;;;2.57;;
17091;SDS011;8661;45.700;4.880;2023-07-13T04:22:04;4.37;;;2.43;;
17091;SDS011;8661;45.700;4.880;2023-07-13T04:24:31;6.57;;;2.40;;
17091;SDS011;8661;45.700;4.880;2023-07-13T04:27:00;5.50;;;3.20;;
17091;SDS011;8661;45.700;4.880;2023-07-13T04:29:28;4.60;;;2.30;;
17091;SDS011;8661;45.700;4.880;2023-07-13T04:31:55;5.57;;;2.83;;
17091;SDS011;8661;45.700;4.880;2023-07-13T04:34:22;8.90;;;2.40;;
17091;SDS011;8661;45.700;4.880;2023-07-13T04:36:49;11.37;;;2.57;;
17091;SDS011;8661;45.700;4.880;2023-07-13T04:39:16;3.17;;;2.30;;
17091;SDS011;8661;45.700;4.880;2023-07-13T04:41:43;4.93;;;2.23;;
17091;SDS011;8661;45.700;4.880;2023-07-13T04:44:11;7.03;;;2.80;;
17091;SDS011;8661;45.700;4.880;2023-07-13T04:46:38;3.80;;;2.53;;
17091;SDS011;8661;45.700;4.880;2023-07-13T04:49:05;5.77;;;3.03;;
17091;SDS011;8661;45.700;4.880;2023-07-13T04:51:32;6.90;;;2.43;;
17091;SDS011;8661;45.700;4.880;2023-07-13T04:53:59;4.67;;;2.33;;
17091;SDS011;8661;45.700;4.880;2023-07-13T04:56:26;4.50;;;3.03;;
17091;SDS011;8661;45.700;4.880;2023-07-13T04:58:53;7.37;;;3.17;;
17091;SDS011;8661;45.700;4.880;2023-07-13T05:01:21;4.97;;;2.57;;
17091;SDS011;8661;45.700;4.880;2023-07-13T05:03:48;5.27;;;2.90;;
17091;SDS011;8661;45.700;4.880;2023-07-13T05:06:24;5.93;;;2.40;;
17091;SDS011;8661;45.700;4.880;2023-07-13T05:09:01;6.47;;;2.60;;
17091;SDS011;8661;45.700;4.880;2023-07-13T05:11:28;3.87;;;2.50;;
17091;SDS011;8661;45.700;4.880;2023-07-13T05:13:55;6.13;;;2.37;;
17091;SDS011;8661;45.700;4.880;2023-07-13T05:16:23;5.87;;;2.50;;
17091;SDS011;8661;45.700;4.880;2023-07-13T05:18:50;8.20;;;3.03;;
17091;SDS011;8661;45.700;4.880;2023-07-13T05:21:17;6.47;;;2.77;;
17091;SDS011;8661;45.700;4.880;2023-07-13T05:23:44;12.87;;;2.80;;
17091;SDS011;8661;45.700;4.880;2023-07-13T05:26:11;5.30;;;2.80;;
17091;SDS011;8661;45.700;4.880;2023-07-13T05:28:38;5.43;;;2.43;;
17091;SDS011;8661;45.700;4.880;2023-07-13T05:31:05;4.50;;;2.90;;
17091;SDS011;8661;45.700;4.880;2023-07-13T05:33:35;8.20;;;2.70;;
17091;SDS011;8661;45.700;4.880;2023-07-13T05:36:02;3.13;;;2.20;;
17091;SDS011;8661;45.700;4.880;2023-07-13T05:38:29;8.83;;;2.47;;
17091;SDS011;8661;45.700;4.880;2023-07-13T05:40:56;4.03;;;2.93;;
17091;SDS011;8661;45.700;4.880;2023-07-13T05:43:23;2.97;;;2.50;;
17091;SDS011;8661;45.700;4.880;2023-07-13T05:45:51;7.07;;;2.40;;
17091;SDS011;8661;45.700;4.880;2023-07-13T05:48:19;5.33;;;2.50;;
17091;SDS011;8661;45.700;4.880;2023-07-13T05:50:47;5.47;;;2.80;;
17091;SDS011;8661;45.700;4.880;2023-07-13T05:53:14;4.00;;;2.50;;
17091;SDS011;8661;45.700;4.880;2023-07-13T05:55:41;4.17;;;2.50;;
17091;SDS011;8661;45.700;4.880;2023-07-13T05:58:09;7.10;;;2.60;;
17091;SDS011;8661;45.700;4.880;2023-07-13T06:00:37;7.27;;;3.63;;
17091;SDS011;8661;45.700;4.880;2023-07-13T06:03:04;5.40;;;3.30;;
17091;SDS011;8661;45.700;4.880;2023-07-13T06:05:31;4.30;;;2.50;;
17091;SDS011;8661;45.700;4.880;2023-07-13T06:08:00;3.67;;;2.10;;
17091;SDS011;8661;45.700;4.880;2023-07-13T06:10:27;5.37;;;2.70;;
17091;SDS011;8661;45.700;4.880;2023-07-13T06:12:54;4.00;;;2.50;;
17091;SDS011;8661;45.700;4.880;2023-07-13T06:15:21;5.00;;;2.60;;
17091;SDS011;8661;45.700;4.880;2023-07-13T06:17:48;7.40;;;3.17;;
17091;SDS011;8661;45.700;4.880;2023-07-13T06:20:15;3.57;;;2.83;;
17091;SDS011;8661;45.700;4.880;2023-07-13T06:22:42;5.03;;;2.90;;
17091;SDS011;8661;45.700;4.880;2023-07-13T06:25:10;8.50;;;2.53;;
17091;SDS011;8661;45.700;4.880;2023-07-13T06:27:37;4.50;;;2.10;;
17091;SDS011;8661;45.700;4.880;2023-07-13T06:30:05;4.47;;;2.20;;
17091;SDS011;8661;45.700;4.880;2023-07-13T06:32:32;7.37;;;2.10;;
17091;SDS011;8661;45.700;4.880;2023-07-13T06:34:59;4.97;;;1.80;;
17091;SDS011;8661;45.700;4.880;2023-07-13T06:37:26;6.87;;;1.90;;
17091;SDS011;8661;45.700;4.880;2023-07-13T06:39:53;2.97;;;1.80;;
17091;SDS011;8661;45.700;4.880;2023-07-13T06:42:21;5.90;;;2.03;;
17091;SDS011;8661;45.700;4.880;2023-07-13T06:44:48;4.63;;;1.90;;
17091;SDS011;8661;45.700;4.880;2023-07-13T06:47:15;4.63;;;1.80;;
17091;SDS011;8661;45.700;4.880;2023-07-13T06:49:41;2.57;;;1.63;;
17091;SDS011;8661;45.700;4.880;2023-07-13T06:52:08;2.00;;;1.57;;
17091;SDS011;8661;45.700;4.880;2023-07-13T06:54:35;2.57;;;1.40;;
17091;SDS011;8661;45.700;4.880;2023-07-13T06:57:02;2.33;;;1.60;;
17091;SDS011;8661;45.700;4.880;2023-07-13T06:59:31;5.53;;;1.90;;
17091;SDS011;8661;45.700;4.880;2023-07-13T07:01:58;4.57;;;2.17;;
17091;SDS011;8661;45.700;4.880;2023-07-13T07:04:25;3.83;;;1.93;;
17091;SDS011;8661;45.700;4.880;2023-07-13T07:06:52;5.83;;;1.73;;
17091;SDS011;8661;45.700;4.880;2023-07-13T07:09:19;3.43;;;1.60;;
17091;SDS011;8661;45.700;4.880;2023-07-13T07:11:46;3.67;;;1.50;;
17091;SDS011;8661;45.700;4.880;2023-07-13T07:14:12;5.17;;;2.20;;
17091;SDS011;8661;45.700;4.880;2023-07-13T07:16:41;2.77;;;1.33;;
17091;SDS011;8661;45.700;4.880;2023-07-13T07:19:08;4.77;;;1.53;;
17091;SDS011;8661;45.700;4.880;2023-07-13T07:21:34;2.93;;;1.40;;
17091;SDS011;8661;45.700;4.880;2023-07-13T07:24:01;3.70;;;1.40;;
17091;SDS011;8661;45.700;4.880;2023-07-13T07:26:29;3.57;;;1.77;;
17091;SDS011;8661;45.700;4.880;2023-07-13T07:28:56;4.80;;;1.50;;
17091;SDS011;8661;45.700;4.880;2023-07-13T07:31:23;4.73;;;1.43;;
17091;SDS011;8661;45.700;4.880;2023-07-13T07:33:51;6.67;;;1.90;;
17091;SDS011;8661;45.700;4.880;2023-07-13T07:36:18;1.63;;;1.27;;
17091;SDS011;8661;45.700;4.880;2023-07-13T07:38:45;5.80;;;2.10;;
17091;SDS011;8661;45.700;4.880;2023-07-13T07:41:12;3.60;;;1.47;;
17091;SDS011;8661;45.700;4.880;2023-07-13T07:43:40;3.27;;;1.40;;
17091;SDS011;8661;45.700;4.880;2023-07-13T07:46:07;3.10;;;1.40;;
17091;SDS011;8661;45.700;4.880;2023-07-13T07:48:33;3.10;;;1.43;;
17091;SDS011;8661;45.700;4.880;2023-07-13T07:51:02;14.97;;;1.63;;
17091;SDS011;8661;45.700;4.880;2023-07-13T07:53:29;7.67;;;2.30;;
17091;SDS011;8661;45.700;4.880;2023-07-13T07:55:56;3.37;;;1.50;;
17091;SDS011;8661;45.700;4.880;2023-07-13T07:58:23;3.83;;;1.60;;
17091;SDS011;8661;45.700;4.880;2023-07-13T08:00:50;6.27;;;1.67;;
17091;SDS011;8661;45.700;4.880;2023-07-13T08:03:16;3.73;;;1.57;;
17091;SDS011;8661;45.700;4.880;2023-07-13T08:05:43;10.33;;;2.47;;
17091;SDS011;8661;45.700;4.880;2023-07-13T08:08:12;2.00;;;1.30;;
17091;SDS011;8661;45.700;4.880;2023-07-13T08:10:39;4.73;;;1.50;;
17091;SDS011;8661;45.700;4.880;2023-07-13T08:13:06;3.13;;;1.80;;
17091;SDS011;8661;45.700;4.880;2023-07-13T08:15:33;3.97;;;1.40;;
17091;SDS011;8661;45.700;4.880;2023-07-13T08:17:59;3.70;;;1.20;;
17091;SDS011;8661;45.700;4.880;2023-07-13T08:20:27;4.43;;;1.50;;
17091;SDS011;8661;45.700;4.880;2023-07-13T08:22:54;7.23;;;1.43;;
17091;SDS011;8661;45.700;4.880;2023-07-13T08:25:22;4.60;;;1.10;;
17091;SDS011;8661;45.700;4.880;2023-07-13T08:27:49;2.43;;;1.50;;
17091;SDS011;8661;45.700;4.880;2023-07-13T08:30:16;5.20;;;1.30;;
17091;SDS011;8661;45.700;4.880;2023-07-13T08:32:43;2.07;;;1.20;;
17091;SDS011;8661;45.700;4.880;2023-07-13T08:35:10;8.67;;;1.47;;
17091;SDS011;8661;45.700;4.880;2023-07-13T08:37:39;2.37;;;1.17;;
17091;SDS011;8661;45.700;4.880;2023-07-13T08:40:07;2.83;;;1.20;;
17091;SDS011;8661;45.700;4.880;2023-07-13T08:42:38;3.30;;;1.37;;
17091;SDS011;8661;45.700;4.880;2023-07-13T08:45:13;2.40;;;1.03;;
17091;SDS011;8661;45.700;4.880;2023-07-13T08:47:47;4.00;;;1.40;;
17091;SDS011;8661;45.700;4.880;2023-07-13T08:50:17;4.00;;;1.30;;
17091;SDS011;8661;45.700;4.880;2023-07-13T08:52:45;4.40;;;1.27;;
17091;SDS011;8661;45.700;4.880;2023-07-13T08:55:13;3.33;;;1.30;;
17091;SDS011;8661;45.700;4.880;2023-07-13T08:57:45;2.50;;;1.20;;
17091;SDS011;8661;45.700;4.880;2023-07-13T09:00:17;4.67;;;1.27;;
17091;SDS011;8661;45.700;4.880;2023-07-13T09:02:45;4.63;;;1.47;;
17091;SDS011;8661;45.700;4.880;2023-07-13T09:05:20;7.57;;;1.93;;
17091;SDS011;8661;45.700;4.880;2023-07-13T09:08:01;5.18;;;1.52;;
17091;SDS011;8661;45.700;4.880;2023-07-13T09:10:49;2.00;;;1.10;;
17091;SDS011;8661;45.700;4.880;2023-07-13T09:13:25;5.80;;;1.35;;
17091;SDS011;8661;45.700;4.880;2023-07-13T09:16:00;2.00;;;0.90;;
17091;SDS011;8661;45.700;4.880;2023-07-13T09:18:28;6.80;;;1.38;;
17091;SDS011;8661;45.700;4.880;2023-07-13T09:20:58;1.77;;;1.02;;
17091;SDS011;8661;45.700;4.880;2023-07-13T09:23:29;3.50;;;1.55;;
17091;SDS011;8661;45.700;4.880;2023-07-13T09:25:59;12.43;;;2.42;;
17091;SDS011;8661;45.700;4.880;2023-07-13T09:28:33;5.45;;;1.42;;
17091;SDS011;8661;45.700;4.880;2023-07-13T09:31:04;4.20;;;1.60;;
17091;SDS011;8661;45.700;4.880;2023-07-13T09:33:35;3.05;;;1.40;;
17091;SDS011;8661;45.700;4.880;2023-07-13T09:36:05;3.67;;;1.27;;
17091;SDS011;8661;45.700;4.880;2023-07-13T09:38:43;5.97;;;1.52;;
17091;SDS011;8661;45.700;4.880;2023-07-13T09:41:15;3.95;;;1.35;;
17091;SDS011;8661;45.700;4.880;2023-07-13T09:44:07;4.50;;;1.48;;
17091;SDS011;8661;45.700;4.880;2023-07-13T09:46:36;2.60;;;1.10;;
17091;SDS011;8661;45.700;4.880;2023-07-13T09:49:03;3.28;;;1.30;;
17091;SDS011;8661;45.700;4.880;2023-07-13T09:51:30;2.50;;;1.25;;
17091;SDS011;8661;45.700;4.880;2023-07-13T09:53:57;3.70;;;1.17;;
17091;SDS011;8661;45.700;4.880;2023-07-13T09:56:26;3.55;;;1.42;;
17091;SDS011;8661;45.700;4.880;2023-07-13T09:58:55;2.65;;;1.30;;
17091;SDS011;8661;45.700;4.880;2023-07-13T10:01:33;3.58;;;1.25;;
17091;SDS011;8661;45.700;4.880;2023-07-13T10:04:02;5.80;;;1.50;;
17091;SDS011;8661;45.700;4.880;2023-07-13T10:06:37;4.82;;;1.20;;
17091;SDS011;8661;45.700;4.880;2023-07-13T10:09:07;3.72;;;1.27;;
17091;SDS011;8661;45.700;4.880;2023-07-13T10:11:35;2.67;;;1.15;;
17091;SDS011;8661;45.700;4.880;2023-07-13T10:14:10;3.38;;;1.63;;
17091;SDS011;8661;45.700;4.880;2023-07-13T10:16:41;3.83;;;1.42;;
17091;SDS011;8661;45.700;4.880;2023-07-13T10:19:11;2.25;;;1.40;;
17091;SDS011;8661;45.700;4.880;2023-07-13T10:21:43;5.22;;;1.10;;
17091;SDS011;8661;45.700;4.880;2023-07-13T10:24:17;2.03;;;1.13;;
17091;SDS011;8661;45.700;4.880;2023-07-13T10:26:48;4.07;;;1.08;;
17091;SDS011;8661;45.700;4.880;2023-07-13T10:29:20;2.97;;;1.33;;
17091;SDS011;8661;45.700;4.880;2023-07-13T10:31:52;2.78;;;1.05;;
17091;SDS011;8661;45.700;4.880;2023-07-13T10:34:18;4.00;;;1.10;;
17091;SDS011;8661;45.700;4.880;2023-07-13T10:36:47;2.92;;;1.45;;
17091;SDS011;8661;45.700;4.880;2023-07-13T10:39:15;2.60;;;1.00;;
17091;SDS011;8661;45.700;4.880;2023-07-13T10:41:44;3.15;;;1.30;;
17091;SDS011;8661;45.700;4.880;2023-07-13T10:44:18;2.22;;;0.95;;
17091;SDS011;8661;45.700;4.880;2023-07-13T10:46:52;2.05;;;1.08;;
17091;SDS011;8661;45.700;4.880;2023-07-13T10:49:22;3.30;;;1.00;;
17091;SDS011;8661;45.700;4.880;2023-07-13T10:51:49;3.75;;;1.10;;
17091;SDS011;8661;45.700;4.880;2023-07-13T10:54:18;4.28;;;1.00;;
17091;SDS011;8661;45.700;4.880;2023-07-13T10:56:53;2.70;;;1.00;;
17091;SDS011;8661;45.700;4.880;2023-07-13T10:59:34;2.63;;;0.85;;
17091;SDS011;8661;45.700;4.880;2023-07-13T11:02:09;4.00;;;1.08;;
17091;SDS011;8661;45.700;4.880;2023-07-13T11:04:40;4.47;;;1.13;;
17091;SDS011;8661;45.700;4.880;2023-07-13T11:07:18;3.22;;;0.95;;
17091;SDS011;8661;45.700;4.880;2023-07-13T11:09:49;5.97;;;1.10;;
17091;SDS011;8661;45.700;4.880;2023-07-13T11:12:27;2.65;;;1.10;;
17091;SDS011;8661;45.700;4.880;2023-07-13T11:15:13;3.28;;;1.08;;
17091;SDS011;8661;45.700;4.880;2023-07-13T11:17:54;1.70;;;0.98;;
17091;SDS011;8661;45.700;4.880;2023-07-13T11:20:35;4.28;;;1.15;;
17091;SDS011;8661;45.700;4.880;2023-07-13T11:25:57;6.57;;;1.42;;
17091;SDS011;8661;45.700;4.880;2023-07-13T11:28:26;1.30;;;0.95;;
17091;SDS011;8661;45.700;4.880;2023-07-13T11:31:04;3.60;;;1.17;;
17091;SDS011;8661;45.700;4.880;2023-07-13T11:33:55;2.60;;;0.90;;
17091;SDS011;8661;45.700;4.880;2023-07-13T11:36:27;3.58;;;0.90;;
17091;SDS011;8661;45.700;4.880;2023-07-13T11:39:05;2.80;;;1.17;;
17091;SDS011;8661;45.700;4.880;2023-07-13T11:41:45;2.58;;;0.95;;
17091;SDS011;8661;45.700;4.880;2023-07-13T11:44:17;6.20;;;1.35;;
17091;SDS011;8661;45.700;4.880;2023-07-13T11:46:46;3.38;;;1.45;;
17091;SDS011;8661;45.700;4.880;2023-07-13T11:49:18;2.42;;;1.20;;
17091;SDS011;8661;45.700;4.880;2023-07-13T11:51:46;2.53;;;1.35;;
17091;SDS011;8661;45.700;4.880;2023-07-13T11:54:21;2.95;;;1.27;;
17091;SDS011;8661;45.700;4.880;2023-07-13T11:56:51;1.35;;;0.90;;
17091;SDS011;8661;45.700;4.880;2023-07-13T11:59:19;2.10;;;1.05;;
17091;SDS011;8661;45.700;4.880;2023-07-13T12:01:46;2.83;;;0.90;;
17091;SDS011;8661;45.700;4.880;2023-07-13T12:04:20;1.40;;;0.90;;
17091;SDS011;8661;45.700;4.880;2023-07-13T12:06:56;2.45;;;1.00;;
17091;SDS011;8661;45.700;4.880;2023-07-13T12:09:25;3.00;;;1.00;;
17091;SDS011;8661;45.700;4.880;2023-07-13T12:11:54;2.88;;;1.15;;
17091;SDS011;8661;45.700;4.880;2023-07-13T12:14:23;5.07;;;0.98;;
17091;SDS011;8661;45.700;4.880;2023-07-13T12:16:52;3.33;;;1.23;;
17091;SDS011;8661;45.700;4.880;2023-07-13T12:19:22;3.10;;;1.27;;
17091;SDS011;8661;45.700;4.880;2023-07-13T12:21:52;5.55;;;1.50;;
17091;SDS011;8661;45.700;4.880;2023-07-13T12:24:22;2.83;;;0.95;;
17091;SDS011;8661;45.700;4.880;2023-07-13T12:26:50;2.22;;;1.20;;
17091;SDS011;8661;45.700;4.880;2023-07-13T12:29:18;4.45;;;1.02;;
17091;SDS011;8661;45.700;4.880;2023-07-13T12:31:45;1.55;;;0.80;;
17091;SDS011;8661;45.700;4.880;2023-07-13T12:34:14;2.08;;;1.10;;
17091;SDS011;8661;45.700;4.880;2023-07-13T12:36:46;3.08;;;1.00;;
17091;SDS011;8661;45.700;4.880;2023-07-13T12:39:15;5.60;;;1.13;;
17091;SDS011;8661;45.700;4.880;2023-07-13T12:41:45;1.58;;;0.95;;
17091;SDS011;8661;45.700;4.880;2023-07-13T12:44:12;2.92;;;1.63;;
17091;SDS011;8661;45.700;4.880;2023-07-13T12:46:50;1.98;;;0.90;;
17091;SDS011;8661;45.700;4.880;2023-07-13T12:49:23;1.35;;;0.88;;
17091;SDS011;8661;45.700;4.880;2023-07-13T12:54:40;4.05;;;1.00;;
17091;SDS011;8661;45.700;4.880;2023-07-13T12:57:08;4.55;;;1.00;;
17091;SDS011;8661;45.700;4.880;2023-07-13T12:59:42;1.30;;;0.90;;
17091;SDS011;8661;45.700;4.880;2023-07-13T13:02:26;2.72;;;1.13;;
17091;SDS011;8661;45.700;4.880;2023-07-13T13:04:56;1.90;;;1.00;;
17091;SDS011;8661;45.700;4.880;2023-07-13T13:07:25;4.35;;;1.10;;
17091;SDS011;8661;45.700;4.880;2023-07-13T13:09:54;1.98;;;1.08;;
17091;SDS011;8661;45.700;4.880;2023-07-13T13:12:21;2.60;;;0.90;;
17091;SDS011;8661;45.700;4.880;2023-07-13T13:14:50;1.17;;;0.80;;
17091;SDS011;8661;45.700;4.880;2023-07-13T13:17:18;2.35;;;0.90;;
17091;SDS011;8661;45.700;4.880;2023-07-13T13:19:49;2.25;;;0.80;;
17091;SDS011;8661;45.700;4.880;2023-07-13T13:22:18;8.63;;;1.33;;
17091;SDS011;8661;45.700;4.880;2023-07-13T13:24:46;5.72;;;1.20;;
17091;SDS011;8661;45.700;4.880;2023-07-13T13:27:17;3.03;;;0.80;;
17091;SDS011;8661;45.700;4.880;2023-07-13T13:29:46;6.05;;;0.90;;
17091;SDS011;8661;45.700;4.880;2023-07-13T13:32:15;3.72;;;1.17;;
17091;SDS011;8661;45.700;4.880;2023-07-13T13:34:42;2.33;;;1.20;;
17091;SDS011;8661;45.700;4.880;2023-07-13T13:37:16;2.35;;;1.13;;
17091;SDS011;8661;45.700;4.880;2023-07-13T13:39:47;4.60;;;1.20;;
17091;SDS011;8661;45.700;4.880;2023-07-13T13:42:16;2.08;;;1.00;;
17091;SDS011;8661;45.700;4.880;2023-07-13T13:44:43;3.17;;;1.00;;
17091;SDS011;8661;45.700;4.880;2023-07-13T13:47:18;2.35;;;0.80;;
17091;SDS011;8661;45.700;4.880;2023-07-13T13:49:54;2.42;;;1.10;;
17091;SDS011;8661;45.700;4.880;2023-07-13T13:52:21;2.42;;;0.95;;
17091;SDS011;8661;45.700;4.880;2023-07-13T13:54:49;2.08;;;1.27;;
17091;SDS011;8661;45.700;4.880;2023-07-13T13:57:20;1.98;;;0.90;;
17091;SDS011;8661;45.700;4.880;2023-07-13T13:59:49;2.13;;;1.10;;
17091;SDS011;8661;45.700;4.880;2023-07-13T14:02:21;1.55;;;0.90;;
17091;SDS011;8661;45.700;4.880;2023-07-13T14:04:52;2.45;;;0.95;;
17091;SDS011;8661;45.700;4.880;2023-07-13T14:07:22;3.28;;;1.27;;
17091;SDS011;8661;45.700;4.880;2023-07-13T14:09:51;3.45;;;1.05;;
17091;SDS011;8661;45.700;4.880;2023-07-13T14:12:18;2.28;;;1.10;;
17091;SDS011;8661;45.700;4.880;2023-07-13T14:14:45;3.00;;;1.13;;
17091;SDS011;8661;45.700;4.880;2023-07-13T14:17:17;2.53;;;1.10;;
17091;SDS011;8661;45.700;4.880;2023-07-13T14:19:47;2.63;;;0.90;;
17091;SDS011;8661;45.700;4.880;2023-07-13T14:22:16;2.35;;;1.17;;
17091;SDS011;8661;45.700;4.880;2023-07-13T14:24:43;2.25;;;0.90;;
17091;SDS011;8661;45.700;4.880;2023-07-13T14:27:12;1.15;;;0.77;;
17091;SDS011;8661;45.700;4.880;2023-07-13T14:29:39;1.73;;;0.80;;
17091;SDS011;8661;45.700;4.880;2023-07-13T14:32:08;1.20;;;0.90;;
17091;SDS011;8661;45.700;4.880;2023-07-13T14:34:36;3.80;;;0.90;;
17091;SDS011;8661;45.700;4.880;2023-07-13T14:37:03;4.72;;;0.98;;
17091;SDS011;8661;45.700;4.880;2023-07-13T14:39:31;2.60;;;1.10;;
17091;SDS011;8661;45.700;4.880;2023-07-13T14:41:58;1.35;;;0.90;;
17091;SDS011;8661;45.700;4.880;2023-07-13T14:44:27;1.80;;;1.23;;
17091;SDS011;8661;45.700;4.880;2023-07-13T14:46:55;4.45;;;1.02;;
17091;SDS011;8661;45.700;4.880;2023-07-13T14:49:24;2.35;;;1.20;;
17091;SDS011;8661;45.700;4.880;2023-07-13T14:51:55;3.90;;;1.00;;
17091;SDS011;8661;45.700;4.880;2023-07-13T14:54:23;2.83;;;1.20;;
17091;SDS011;8661;45.700;4.880;2023-07-13T14:56:50;1.60;;;1.05;;
17091;SDS011;8661;45.700;4.880;2023-07-13T14:59:17;1.88;;;1.00;;
17091;SDS011;8661;45.700;4.880;2023-07-13T15:01:46;2.67;;;1.00;;
17091;SDS011;8661;45.700;4.880;2023-07-13T15:04:14;2.70;;;1.00;;
17091;SDS011;8661;45.700;4.880;2023-07-13T15:06:53;1.52;;;0.85;;
17091;SDS011;8661;45.700;4.880;2023-07-13T15:09:21;4.05;;;0.90;;
17091;SDS011;8661;45.700;4.880;2023-07-13T15:11:49;2.20;;;1.10;;
17091;SDS011;8661;45.700;4.880;2023-07-13T15:14:16;2.53;;;1.08;;
17091;SDS011;8661;45.700;4.880;2023-07-13T15:16:48;5.40;;;1.20;;
17091;SDS011;8661;45.700;4.880;2023-07-13T15:19:19;4.65;;;1.10;;
17091;SDS011;8661;45.700;4.880;2023-07-13T15:21:48;2.25;;;1.00;;
17091;SDS011;8661;45.700;4.880;2023-07-13T15:24:17;2.08;;;1.10;;